createdAt,value
2022-08-27T00:00:16.803Z,100.00
2022-08-27T00:02:44.295Z,100.00
2022-08-27T00:05:12.447Z,100.00
2022-08-27T00:07:39.601Z,100.00
2022-08-27T00:10:08.571Z,100.00
2022-08-27T00:12:35.780Z,100.00
2022-08-27T00:15:03.258Z,100.00
2022-08-27T00:17:29.878Z,100.00
2022-08-27T00:19:56.498Z,100.00
2022-08-27T00:22:23.498Z,100.00
2022-08-27T00:24:50.105Z,100.00
2022-08-27T00:27:17.316Z,100.00
2022-08-27T00:29:43.996Z,100.00
2022-08-27T00:32:10.792Z,100.00
2022-08-27T00:34:37.438Z,100.00
2022-08-27T00:37:06.617Z,100.00
2022-08-27T00:39:34.976Z,100.00
2022-08-27T00:42:01.652Z,100.00
2022-08-27T00:44:28.741Z,100.00
2022-08-27T00:47:00.674Z,100.00
2022-08-27T00:49:34.408Z,100.00
2022-08-27T00:52:07.235Z,100.00
2022-08-27T00:54:34.456Z,100.00
2022-08-27T00:57:03.452Z,100.00
2022-08-27T00:59:31.211Z,100.00
2022-08-27T01:02:17.500Z,100.00
2022-08-27T01:05:04.493Z,100.00
2022-08-27T01:07:36.436Z,100.00
2022-08-27T01:10:03.964Z,100.00
2022-08-27T01:12:32.981Z,100.00
2022-08-27T01:15:03.083Z,100.00
2022-08-27T01:17:31.045Z,100.00
2022-08-27T01:20:02.256Z,100.00
2022-08-27T01:23:00.262Z,100.00
2022-08-27T01:25:28.937Z,100.00
2022-08-27T01:28:00.608Z,100.00
2022-08-27T01:30:27.954Z,100.00
2022-08-27T01:32:54.811Z,100.00
2022-08-27T01:35:23.334Z,100.00
2022-08-27T01:37:53.707Z,100.00
2022-08-27T01:40:23.966Z,100.00
2022-08-27T01:42:54.992Z,100.00
2022-08-27T01:45:28.149Z,100.00
2022-08-27T01:47:55.046Z,100.00
2022-08-27T01:50:25.801Z,100.00
2022-08-27T01:52:53.217Z,100.00
2022-08-27T01:55:23.568Z,100.00
2022-08-27T01:57:50.489Z,100.00
2022-08-27T02:00:24.633Z,100.00
2022-08-27T02:02:51.843Z,100.00
2022-08-27T02:05:19.220Z,100.00
2022-08-27T02:07:45.960Z,100.00
2022-08-27T02:10:17.794Z,100.00
2022-08-27T02:12:44.420Z,100.00
2022-08-27T02:15:11.937Z,100.00
2022-08-27T02:17:38.696Z,100.00
2022-08-27T02:20:09.404Z,100.00
2022-08-27T02:22:36.083Z,100.00
2022-08-27T02:25:03.327Z,100.00
2022-08-27T02:27:30.140Z,100.00
2022-08-27T02:29:56.766Z,100.00
2022-08-27T02:32:31.716Z,100.00
2022-08-27T02:35:00.065Z,100.00
2022-08-27T02:37:27.340Z,100.00
2022-08-27T02:39:54.251Z,100.00
2022-08-27T02:42:21.031Z,100.00
2022-08-27T02:44:48.018Z,100.00
2022-08-27T02:47:16.697Z,100.00
2022-08-27T02:49:44.463Z,100.00
2022-08-27T02:52:11.407Z,100.00
2022-08-27T02:54:38.118Z,100.00
2022-08-27T02:57:06.211Z,100.00
2022-08-27T02:59:32.885Z,100.00
2022-08-27T03:01:59.577Z,100.00
2022-08-27T03:04:27.996Z,100.00
2022-08-27T03:06:54.840Z,100.00
2022-08-27T03:09:21.883Z,100.00
2022-08-27T03:11:48.666Z,100.00
2022-08-27T03:14:15.322Z,100.00
2022-08-27T03:16:41.972Z,100.00
2022-08-27T03:19:09.098Z,100.00
2022-08-27T03:21:36.368Z,100.00
2022-08-27T03:24:11.339Z,100.00
2022-08-27T03:26:38.729Z,100.00
2022-08-27T03:29:06.368Z,100.00
2022-08-27T03:31:33.247Z,100.00
2022-08-27T03:34:02.521Z,100.00
2022-08-27T03:36:30.678Z,100.00
2022-08-27T03:38:57.857Z,100.00
2022-08-27T03:41:45.537Z,100.00
2022-08-27T03:44:12.292Z,100.00
2022-08-27T03:46:48.793Z,100.00
2022-08-27T03:49:15.428Z,100.00
2022-08-27T03:51:48.018Z,100.00
2022-08-27T03:54:14.651Z,100.00
2022-08-27T03:56:41.724Z,100.00
2022-08-27T03:59:08.435Z,100.00
2022-08-27T04:01:35.134Z,100.00
2022-08-27T04:04:02.051Z,100.00
2022-08-27T04:06:28.658Z,100.00
2022-08-27T04:08:55.267Z,100.00
2022-08-27T04:11:22.207Z,100.00
2022-08-27T04:13:48.854Z,100.00
2022-08-27T04:16:15.568Z,100.00
2022-08-27T04:18:42.332Z,100.00
2022-08-27T04:21:11.450Z,100.00
2022-08-27T04:23:39.437Z,100.00
2022-08-27T04:26:07.153Z,100.00
2022-08-27T04:28:38.380Z,100.00
2022-08-27T04:31:16.380Z,100.00
2022-08-27T04:33:51.221Z,100.00
2022-08-27T04:36:18.626Z,100.00
2022-08-27T04:38:45.367Z,100.00
2022-08-27T04:41:26.553Z,100.00
2022-08-27T04:43:58.721Z,100.00
2022-08-27T04:46:31.781Z,100.00
2022-08-27T04:49:00.461Z,100.00
2022-08-27T04:51:29.059Z,100.00
2022-08-27T04:53:56.370Z,100.00
2022-08-27T04:56:26.525Z,100.00
2022-08-27T04:58:53.388Z,100.00
2022-08-27T05:01:23.800Z,100.00
2022-08-27T05:03:50.698Z,100.00
2022-08-27T05:06:17.753Z,98.76
2022-08-27T05:08:44.832Z,87.49
2022-08-27T05:11:15.148Z,82.46
2022-08-27T05:13:45.465Z,76.73
2022-08-27T05:16:15.508Z,75.05
2022-08-27T05:18:48.632Z,69.37
2022-08-27T05:21:21.336Z,65.35
2022-08-27T05:23:49.269Z,67.42
2022-08-27T05:26:16.375Z,66.91
2022-08-27T05:28:43.016Z,67.18
2022-08-27T05:31:12.368Z,61.08
2022-08-27T05:33:40.425Z,61.76
2022-08-27T05:36:14.619Z,62.59
2022-08-27T05:38:42.539Z,63.04
2022-08-27T05:41:15.246Z,62.43
2022-08-27T05:43:46.497Z,58.39
2022-08-27T05:46:19.051Z,56.33
2022-08-27T05:48:45.958Z,56.72
2022-08-27T05:51:25.705Z,58.92
2022-08-27T05:54:04.504Z,59.52
2022-08-27T05:56:35.653Z,61.47
2022-08-27T05:59:21.380Z,60.67
2022-08-27T06:01:51.245Z,62.00
2022-08-27T06:04:20.471Z,61.51
2022-08-27T06:06:48.791Z,60.26
2022-08-27T06:09:19.186Z,61.39
2022-08-27T06:11:46.572Z,62.87
2022-08-27T06:14:13.256Z,62.99
2022-08-27T06:16:40.589Z,66.49
2022-08-27T06:19:08.867Z,61.50
2022-08-27T06:21:35.534Z,58.44
2022-08-27T06:24:02.392Z,59.85
2022-08-27T06:26:29.421Z,58.18
2022-08-27T06:28:56.039Z,57.61
2022-08-27T06:31:25.444Z,57.85
2022-08-27T06:33:53.840Z,58.98
2022-08-27T06:36:26.055Z,58.15
2022-08-27T06:38:53.351Z,56.42
2022-08-27T06:41:23.965Z,55.89
2022-08-27T06:43:51.911Z,57.01
2022-08-27T06:46:22.134Z,56.28
2022-08-27T06:48:53.013Z,55.37
2022-08-27T06:51:26.329Z,55.72
2022-08-27T06:53:54.860Z,55.30
2022-08-27T06:56:21.938Z,55.46
2022-08-27T06:58:52.141Z,56.57
2022-08-27T07:01:22.582Z,54.83
2022-08-27T07:03:49.498Z,55.25
2022-08-27T07:06:17.867Z,54.17
2022-08-27T07:08:53.002Z,54.90
2022-08-27T07:11:21.087Z,53.91
2022-08-27T07:13:48.943Z,53.69
2022-08-27T07:16:19.256Z,53.89
2022-08-27T07:18:49.918Z,52.45
2022-08-27T07:21:16.884Z,53.28
2022-08-27T07:23:43.557Z,52.68
2022-08-27T07:26:11.700Z,52.18
2022-08-27T07:28:40.207Z,51.87
2022-08-27T07:31:09.240Z,51.79
2022-08-27T07:33:37.311Z,50.54
2022-08-27T07:36:05.982Z,50.28
2022-08-27T07:38:33.348Z,50.39
2022-08-27T07:41:04.356Z,50.27
2022-08-27T07:43:49.874Z,50.20
2022-08-27T07:46:22.242Z,49.26
2022-08-27T07:48:50.186Z,49.32
2022-08-27T07:51:19.642Z,49.35
2022-08-27T07:53:47.054Z,49.27
2022-08-27T07:56:14.594Z,47.62
2022-08-27T07:58:41.948Z,47.26
2022-08-27T08:01:08.908Z,46.80
2022-08-27T08:03:35.819Z,46.54
2022-08-27T08:06:09.176Z,45.68
2022-08-27T08:08:37.268Z,45.06
2022-08-27T08:11:06.227Z,44.87
2022-08-27T08:13:32.892Z,43.65
2022-08-27T08:15:59.834Z,43.49
2022-08-27T08:18:27.409Z,44.28
2022-08-27T08:20:58.979Z,45.09
2022-08-27T08:23:25.636Z,44.18
2022-08-27T08:25:52.256Z,44.82
2022-08-27T08:28:18.851Z,46.32
2022-08-27T08:30:46.406Z,43.62
2022-08-27T08:33:13.549Z,43.99
2022-08-27T08:35:41.296Z,44.17
2022-08-27T08:38:08.753Z,43.69
2022-08-27T08:40:44.174Z,43.02
2022-08-27T08:43:24.203Z,43.99
2022-08-27T08:45:51.745Z,41.72
2022-08-27T08:48:22.289Z,40.91
2022-08-27T08:50:58.011Z,40.89
2022-08-27T08:53:50.998Z,41.93
2022-08-27T08:56:56.965Z,41.32
2022-08-27T08:59:33.679Z,41.91
2022-08-27T09:02:00.965Z,40.55
2022-08-27T09:04:29.799Z,40.00
2022-08-27T09:07:08.593Z,39.25
2022-08-27T09:09:44.871Z,38.30
2022-08-27T09:12:19.255Z,38.27
2022-08-27T09:14:54.809Z,39.03
2022-08-27T09:17:21.601Z,36.78
2022-08-27T09:19:48.353Z,37.23
2022-08-27T09:22:25.043Z,37.49
2022-08-27T09:25:10.479Z,36.31
2022-08-27T09:27:41.590Z,35.35
2022-08-27T09:30:13.117Z,34.87
2022-08-27T09:32:40.173Z,35.98
2022-08-27T09:35:11.282Z,34.59
2022-08-27T09:37:48.158Z,33.61
2022-08-27T09:40:22.753Z,34.68
2022-08-27T09:43:16.010Z,33.12
2022-08-27T09:45:55.248Z,34.34
2022-08-27T09:48:27.753Z,34.55
2022-08-27T09:51:01.207Z,32.02
2022-08-27T09:53:37.503Z,31.68
2022-08-27T09:56:07.784Z,33.07
2022-08-27T09:58:51.635Z,32.56
2022-08-27T10:01:25.691Z,31.99
2022-08-27T10:04:07.857Z,31.48
2022-08-27T10:06:35.329Z,30.81
2022-08-27T10:09:17.685Z,30.32
2022-08-27T10:12:04.596Z,30.19
2022-08-27T10:14:42.671Z,29.86
2022-08-27T10:17:37.205Z,28.04
2022-08-27T10:20:30.551Z,27.61
2022-08-27T10:23:00.283Z,28.13
2022-08-27T10:25:32.965Z,28.11
2022-08-27T10:28:29.585Z,28.48
2022-08-27T10:31:05.529Z,28.16
2022-08-27T10:33:59.252Z,27.65
2022-08-27T10:36:37.964Z,27.65
2022-08-27T10:39:33.732Z,27.32
2022-08-27T10:42:12.116Z,27.14
2022-08-27T10:44:41.656Z,27.10
2022-08-27T10:47:14.263Z,26.32
2022-08-27T10:49:54.965Z,26.62
2022-08-27T10:52:37.180Z,26.28
2022-08-27T10:55:18.188Z,25.04
2022-08-27T10:58:18.747Z,26.06
2022-08-27T11:01:03.186Z,25.06
2022-08-27T11:03:40.195Z,24.40
2022-08-27T11:06:20.628Z,25.54
2022-08-27T11:09:07.643Z,25.90
2022-08-27T11:12:12.669Z,24.43
2022-08-27T11:14:37.577Z,24.67
2022-08-27T11:17:17.775Z,25.65
2022-08-27T11:20:16.376Z,25.18
2022-08-27T11:23:19.603Z,25.96
2022-08-27T11:26:15.661Z,26.31
2022-08-27T11:28:45.046Z,26.48
2022-08-27T11:31:25.285Z,26.31
2022-08-27T11:34:03.513Z,25.01
2022-08-27T11:36:58.127Z,26.00
2022-08-27T11:39:36.596Z,24.93
2022-08-27T11:42:33.332Z,25.09
2022-08-27T11:45:17.671Z,23.60
2022-08-27T11:47:56.619Z,23.69
2022-08-27T11:50:25.642Z,23.52
2022-08-27T11:53:06.623Z,24.18
2022-08-27T11:55:39.077Z,24.77
2022-08-27T11:58:18.054Z,24.58
2022-08-27T12:00:46.815Z,24.37
2022-08-27T12:03:19.644Z,24.33
2022-08-27T12:05:47.636Z,24.50
2022-08-27T12:08:34.958Z,23.97
2022-08-27T12:11:27.323Z,24.45
2022-08-27T12:14:27.527Z,24.17
2022-08-27T12:17:18.620Z,25.01
2022-08-27T12:20:10.077Z,24.34
2022-08-27T12:23:04.089Z,24.29
2022-08-27T12:25:31.301Z,23.94
2022-08-27T12:28:03.463Z,24.21
2022-08-27T12:30:36.360Z,24.58
2022-08-27T12:33:14.724Z,25.06
2022-08-27T12:35:51.607Z,25.62
2022-08-27T12:38:43.924Z,26.69
2022-08-27T12:41:32.543Z,26.06
2022-08-27T12:44:14.168Z,26.05
2022-08-27T12:46:52.276Z,26.00
2022-08-27T12:49:38.180Z,25.30
2022-08-27T12:52:19.149Z,25.78
2022-08-27T12:55:14.935Z,25.45
2022-08-27T12:57:53.868Z,25.28
2022-08-27T13:00:26.590Z,24.26
2022-08-27T13:03:19.582Z,24.95
2022-08-27T13:05:50.958Z,24.56
2022-08-27T13:08:23.056Z,24.01
2022-08-27T13:10:50.692Z,24.30
2022-08-27T13:13:21.606Z,23.91
2022-08-27T13:16:02.280Z,23.00
2022-08-27T13:18:30.069Z,23.00
2022-08-27T13:21:22.016Z,22.88
2022-08-27T13:23:56.179Z,22.61
2022-08-27T13:26:26.440Z,22.76
2022-08-27T13:28:53.361Z,23.97
2022-08-27T13:31:23.939Z,24.81
2022-08-27T13:33:53.989Z,23.37
2022-08-27T13:36:35.852Z,23.92
2022-08-27T13:39:05.336Z,24.05
2022-08-27T13:41:34.923Z,24.93
2022-08-27T13:44:14.503Z,24.87
2022-08-27T13:46:48.659Z,24.77
2022-08-27T13:49:22.574Z,23.92
2022-08-27T13:51:50.791Z,24.37
2022-08-27T13:54:19.368Z,23.84
2022-08-27T13:56:49.115Z,23.92
2022-08-27T13:59:19.220Z,22.99
2022-08-27T14:02:09.560Z,23.48
2022-08-27T14:08:36.083Z,23.25
2022-08-27T14:11:09.281Z,23.10
2022-08-27T14:13:45.983Z,23.22
2022-08-27T14:16:26.332Z,23.32
2022-08-27T14:19:06.669Z,24.57
2022-08-27T14:21:35.470Z,23.56
2022-08-27T14:24:03.137Z,24.75
2022-08-27T14:26:30.224Z,22.82
2022-08-27T14:28:57.355Z,22.85
2022-08-27T14:31:24.792Z,22.67
2022-08-27T14:33:54.451Z,24.32
2022-08-27T14:36:22.641Z,24.23
2022-08-27T14:38:51.393Z,23.30
2022-08-27T14:41:21.674Z,23.30
2022-08-27T14:43:49.829Z,21.86
2022-08-27T14:46:25.501Z,23.68
2022-08-27T14:48:53.490Z,22.79
2022-08-27T14:51:29.307Z,23.36
2022-08-27T14:53:57.115Z,23.58
2022-08-27T14:56:25.864Z,23.89
2022-08-27T14:58:53.708Z,25.14
2022-08-27T15:01:23.565Z,24.64
2022-08-27T15:03:51.223Z,24.74
2022-08-27T15:06:19.159Z,25.10
2022-08-27T15:08:49.792Z,26.19
2022-08-27T15:11:23.891Z,24.70
2022-08-27T15:13:54.980Z,25.50
2022-08-27T15:16:30.836Z,24.84
2022-08-27T15:19:00.689Z,23.63
2022-08-27T15:21:30.460Z,22.81
2022-08-27T15:24:03.593Z,22.81
2022-08-27T15:26:31.471Z,22.87
2022-08-27T15:29:01.666Z,22.28
2022-08-27T15:31:30.860Z,22.73
2022-08-27T15:33:57.512Z,23.46
2022-08-27T15:36:25.281Z,25.07
2022-08-27T15:38:52.007Z,24.54
2022-08-27T15:41:18.610Z,24.95
2022-08-27T15:43:45.224Z,23.41
2022-08-27T15:46:12.006Z,23.65
2022-08-27T15:48:38.937Z,23.26
2022-08-27T15:51:09.541Z,23.57
2022-08-27T15:53:38.135Z,23.83
2022-08-27T15:56:07.846Z,23.61
2022-08-27T15:58:38.208Z,23.90
2022-08-27T16:01:11.328Z,24.50
2022-08-27T16:03:40.757Z,24.79
2022-08-27T16:06:08.887Z,24.57
2022-08-27T16:08:41.748Z,25.20
2022-08-27T16:11:09.212Z,24.97
2022-08-27T16:13:36.737Z,26.00
2022-08-27T16:16:04.039Z,28.14
2022-08-27T16:18:33.072Z,30.07
2022-08-27T16:21:02.461Z,30.86
2022-08-27T16:23:30.565Z,31.39
2022-08-27T16:25:57.732Z,32.07
2022-08-27T16:28:25.013Z,32.89
2022-08-27T16:30:54.371Z,32.98
2022-08-27T16:33:21.262Z,33.28
2022-08-27T16:35:48.363Z,33.59
2022-08-27T16:38:15.145Z,34.01
2022-08-27T16:40:49.422Z,34.16
2022-08-27T16:43:21.164Z,34.33
2022-08-27T16:45:50.245Z,34.67
2022-08-27T16:48:36.363Z,34.92
2022-08-27T16:51:05.547Z,35.25
2022-08-27T16:53:34.650Z,35.23
2022-08-27T16:56:01.758Z,35.81
2022-08-27T16:58:31.041Z,36.21
2022-08-27T17:01:09.485Z,36.84
2022-08-27T17:04:07.640Z,36.59
2022-08-27T17:06:34.719Z,36.75
2022-08-27T17:09:05.172Z,37.10
2022-08-27T17:11:33.281Z,37.45
2022-08-27T17:14:02.456Z,37.64
2022-08-27T17:16:31.518Z,37.57
2022-08-27T17:18:59.286Z,37.62
2022-08-27T17:21:29.898Z,38.12
2022-08-27T17:23:59.482Z,38.33
2022-08-27T17:26:26.547Z,38.35
2022-08-27T17:28:53.705Z,38.35
2022-08-27T17:31:28.438Z,38.71
2022-08-27T17:33:59.326Z,39.05
2022-08-27T17:36:28.248Z,39.97
2022-08-27T17:38:54.979Z,40.26
2022-08-27T17:41:33.903Z,40.63
2022-08-27T17:44:05.198Z,40.86
2022-08-27T17:46:31.957Z,40.69
2022-08-27T17:48:59.671Z,40.88
2022-08-27T17:51:27.524Z,40.92
2022-08-27T17:54:00.623Z,41.64
2022-08-27T17:56:27.877Z,42.35
2022-08-27T17:58:55.110Z,41.44
2022-08-27T18:01:32.187Z,41.85
2022-08-27T18:03:59.803Z,41.95
2022-08-27T18:06:27.917Z,43.40
2022-08-27T18:08:54.563Z,44.14
2022-08-27T18:11:21.452Z,45.19
2022-08-27T18:13:52.578Z,46.00
2022-08-27T18:16:19.803Z,45.33
2022-08-27T18:18:46.652Z,46.51
2022-08-27T18:21:13.985Z,46.74
2022-08-27T18:23:52.180Z,48.65
2022-08-27T18:26:21.634Z,50.46
2022-08-27T18:28:49.059Z,51.43
2022-08-27T18:31:18.405Z,50.53
2022-08-27T18:33:45.284Z,50.84
2022-08-27T18:36:12.078Z,50.18
2022-08-27T18:38:38.830Z,50.80
2022-08-27T18:41:08.467Z,52.34
2022-08-27T18:43:36.021Z,52.23
2022-08-27T18:46:04.590Z,54.11
2022-08-27T18:48:31.763Z,54.48
2022-08-27T18:51:00.531Z,55.75
2022-08-27T18:53:30.197Z,53.48
2022-08-27T18:55:56.847Z,53.80
2022-08-27T18:58:24.306Z,54.66
2022-08-27T19:00:54.673Z,53.27
2022-08-27T19:03:26.277Z,52.80
2022-08-27T19:05:55.117Z,53.90
2022-08-27T19:08:23.847Z,54.02
2022-08-27T19:10:50.872Z,52.98
2022-08-27T19:13:17.563Z,52.67
2022-08-27T19:15:52.437Z,53.10
2022-08-27T19:18:19.324Z,53.27
2022-08-27T19:20:45.946Z,54.28
2022-08-27T19:23:12.535Z,54.60
2022-08-27T19:25:39.225Z,56.71
2022-08-27T19:28:06.185Z,54.77
2022-08-27T19:30:32.832Z,55.27
2022-08-27T19:32:59.524Z,53.46
2022-08-27T19:35:26.210Z,53.15
2022-08-27T19:37:53.544Z,50.53
2022-08-27T19:40:22.080Z,50.10
2022-08-27T19:42:49.632Z,53.13
2022-08-27T19:45:22.972Z,51.79
2022-08-27T19:47:51.003Z,52.97
2022-08-27T19:50:19.036Z,54.26
2022-08-27T19:52:47.423Z,54.72
2022-08-27T19:55:14.998Z,56.23
2022-08-27T19:57:42.826Z,56.28
2022-08-27T20:00:12.268Z,57.00
2022-08-27T20:02:38.967Z,57.52
2022-08-27T20:05:22.043Z,58.76
2022-08-27T20:07:53.433Z,58.75
2022-08-27T20:10:22.025Z,61.66
2022-08-27T20:12:49.539Z,61.07
2022-08-27T20:15:17.149Z,62.56
2022-08-27T20:17:45.236Z,61.76
2022-08-27T20:20:12.692Z,63.40
2022-08-27T20:22:39.821Z,63.28
2022-08-27T20:25:07.427Z,66.44
2022-08-27T20:27:34.933Z,65.41
2022-08-27T20:30:04.673Z,65.01
2022-08-27T20:32:31.373Z,65.80
2022-08-27T20:34:59.050Z,65.61
2022-08-27T20:37:25.887Z,66.20
2022-08-27T20:39:52.846Z,67.60
2022-08-27T20:42:20.623Z,67.26
2022-08-27T20:44:47.795Z,67.87
2022-08-27T20:47:15.605Z,67.77
2022-08-27T20:49:44.516Z,67.14
2022-08-27T20:52:13.095Z,66.37
2022-08-27T20:54:40.736Z,67.38
2022-08-27T20:57:08.779Z,66.67
2022-08-27T20:59:54.161Z,66.69
2022-08-27T21:02:24.544Z,67.59
2022-08-27T21:04:52.114Z,66.81
2022-08-27T21:07:20.435Z,67.15
2022-08-27T21:09:56.059Z,68.72
2022-08-27T21:12:27.675Z,68.10
2022-08-27T21:14:56.048Z,67.91
2022-08-27T21:17:25.023Z,68.58
2022-08-27T21:19:51.832Z,69.24
2022-08-27T21:22:19.414Z,66.14
2022-08-27T21:24:48.758Z,69.12
2022-08-27T21:27:17.067Z,70.98
2022-08-27T21:29:44.845Z,79.76
2022-08-27T21:32:12.448Z,76.73
2022-08-27T21:34:39.721Z,75.54
2022-08-27T21:37:06.320Z,75.49
2022-08-27T21:39:34.272Z,75.21
2022-08-27T21:42:01.635Z,77.79
2022-08-27T21:44:29.900Z,75.90
2022-08-27T21:46:57.366Z,77.74
2022-08-27T21:49:24.143Z,75.01
2022-08-27T21:51:50.888Z,72.52
2022-08-27T21:54:17.597Z,71.14
2022-08-27T21:56:45.058Z,73.06
2022-08-27T21:59:11.922Z,73.67
2022-08-27T22:01:39.478Z,70.83
2022-08-27T22:04:06.290Z,72.13
2022-08-27T22:06:33.057Z,70.87
2022-08-27T22:08:59.869Z,70.74
2022-08-27T22:11:26.911Z,71.84
2022-08-27T22:13:53.926Z,74.63
2022-08-27T22:16:20.663Z,72.75
2022-08-27T22:18:47.524Z,74.67
2022-08-27T22:21:21.089Z,75.66
2022-08-27T22:23:47.681Z,79.51
2022-08-27T22:26:14.245Z,81.70
2022-08-27T22:28:40.836Z,81.04
2022-08-27T22:31:08.413Z,79.96
2022-08-27T22:33:35.236Z,78.70
2022-08-27T22:36:02.032Z,82.29
2022-08-27T22:38:28.651Z,78.37
2022-08-27T22:40:55.296Z,77.72
2022-08-27T22:43:21.929Z,80.58
2022-08-27T22:45:48.601Z,82.17
2022-08-27T22:48:15.286Z,77.71
2022-08-27T22:50:41.938Z,78.02
2022-08-27T22:53:09.316Z,80.03
2022-08-27T22:55:36.263Z,82.98
2022-08-27T22:58:03.789Z,84.34
2022-08-27T23:00:34.237Z,83.81
2022-08-27T23:03:05.428Z,85.63
2022-08-27T23:05:41.364Z,85.64
2022-08-27T23:08:10.339Z,87.69
2022-08-27T23:10:38.477Z,87.23
2022-08-27T23:13:06.909Z,89.82
2022-08-27T23:15:34.031Z,88.49
2022-08-27T23:18:01.660Z,89.71
2022-08-27T23:20:29.304Z,87.20
2022-08-27T23:22:56.442Z,84.77
2022-08-27T23:25:43.689Z,87.88
2022-08-27T23:28:14.708Z,86.96
2022-08-27T23:30:42.859Z,87.87
2022-08-27T23:33:09.706Z,89.68
2022-08-27T23:35:36.495Z,89.53
2022-08-27T23:38:03.895Z,89.95
2022-08-27T23:40:30.594Z,91.83
2022-08-27T23:42:58.662Z,93.08
2022-08-27T23:45:26.375Z,94.59
2022-08-27T23:47:53.462Z,95.79
2022-08-27T23:50:25.175Z,97.09
2022-08-27T23:53:01.882Z,100.00
2022-08-27T23:55:29.109Z,100.00
2022-08-27T23:57:57.770Z,99.32
